createdAt,value
2023-03-17T00:01:18.264Z,4.40
2023-03-17T00:03:49.082Z,4.42
2023-03-17T00:06:21.560Z,4.41
2023-03-17T00:08:48.761Z,4.33
2023-03-17T00:11:17.886Z,4.01
2023-03-17T00:13:45.971Z,4.11
2023-03-17T00:16:17.896Z,4.42
2023-03-17T00:18:47.966Z,4.76
2023-03-17T00:21:18.024Z,4.82
2023-03-17T00:23:50.222Z,4.56
2023-03-17T00:26:17.601Z,4.45
2023-03-17T00:28:44.820Z,4.42
2023-03-17T00:31:15.568Z,4.41
2023-03-17T00:33:44.662Z,4.31
2023-03-17T00:36:18.737Z,4.14
2023-03-17T00:38:46.406Z,4.18
2023-03-17T00:41:14.123Z,4.47
2023-03-17T00:43:41.819Z,4.26
2023-03-17T00:46:14.356Z,4.26
2023-03-17T00:48:42.401Z,5.72
2023-03-17T00:51:10.205Z,5.02
2023-03-17T00:53:39.418Z,5.03
2023-03-17T00:56:14.223Z,4.60
2023-03-17T00:58:41.620Z,4.23
2023-03-17T01:01:09.484Z,4.29
2023-03-17T01:03:38.139Z,4.27
2023-03-17T01:06:10.497Z,4.59
2023-03-17T01:08:41.138Z,5.03
2023-03-17T01:11:16.066Z,5.11
2023-03-17T01:13:43.522Z,4.61
2023-03-17T01:16:12.338Z,4.31
2023-03-17T01:18:39.974Z,4.20
2023-03-17T01:21:08.556Z,4.37
2023-03-17T01:23:35.888Z,4.40
2023-03-17T01:26:05.043Z,4.20
2023-03-17T01:28:32.257Z,3.86
2023-03-17T01:30:59.780Z,4.20
2023-03-17T01:33:26.956Z,4.03
2023-03-17T01:35:54.167Z,3.91
2023-03-17T01:38:21.676Z,3.90
2023-03-17T01:40:51.278Z,3.61
2023-03-17T01:43:22.968Z,3.66
2023-03-17T01:46:16.331Z,3.79
2023-03-17T01:48:48.978Z,4.17
2023-03-17T01:51:24.440Z,3.81
2023-03-17T01:53:53.979Z,3.99
2023-03-17T01:56:21.479Z,4.09
2023-03-17T01:58:54.876Z,3.90
2023-03-17T02:01:30.386Z,3.56
2023-03-17T02:03:58.457Z,3.79
2023-03-17T02:06:27.159Z,3.83
2023-03-17T02:08:54.418Z,3.64
2023-03-17T02:11:21.639Z,3.67
2023-03-17T02:13:50.479Z,4.09
2023-03-17T02:16:18.074Z,3.75
2023-03-17T02:18:45.335Z,3.75
2023-03-17T02:21:40.138Z,3.50
2023-03-17T02:24:13.838Z,3.99
2023-03-17T02:26:43.798Z,3.66
2023-03-17T02:29:10.905Z,3.80
2023-03-17T02:31:38.136Z,3.88
2023-03-17T02:34:05.561Z,3.77
2023-03-17T02:36:34.191Z,3.84
2023-03-17T02:39:01.280Z,3.78
2023-03-17T02:41:28.462Z,3.63
2023-03-17T02:43:55.725Z,3.83
2023-03-17T02:46:23.034Z,4.07
2023-03-17T02:48:50.317Z,3.76
2023-03-17T02:51:17.863Z,3.57
2023-03-17T02:53:46.386Z,3.63
2023-03-17T02:56:13.560Z,3.71
2023-03-17T02:58:40.688Z,3.75
2023-03-17T03:01:07.983Z,3.82
2023-03-17T03:03:35.227Z,3.81
2023-03-17T03:06:03.201Z,3.91
2023-03-17T03:08:30.524Z,3.33
2023-03-17T03:10:59.065Z,3.73
2023-03-17T03:13:26.189Z,3.60
2023-03-17T03:15:53.377Z,3.65
2023-03-17T03:18:20.592Z,3.60
2023-03-17T03:20:47.845Z,3.37
2023-03-17T03:23:15.808Z,3.38
2023-03-17T03:25:43.214Z,3.28
2023-03-17T03:28:11.967Z,3.60
2023-03-17T03:30:39.686Z,3.70
2023-03-17T03:33:07.056Z,3.34
2023-03-17T03:35:34.613Z,3.95
2023-03-17T03:38:01.810Z,3.68
2023-03-17T03:40:29.432Z,3.67
2023-03-17T03:42:56.726Z,4.22
2023-03-17T03:45:25.384Z,4.24
2023-03-17T03:47:52.643Z,3.95
2023-03-17T03:50:20.903Z,3.92
2023-03-17T03:52:48.284Z,3.62
2023-03-17T03:55:15.621Z,3.68
2023-03-17T03:57:43.293Z,3.74
2023-03-17T04:00:12.101Z,3.94
2023-03-17T04:02:41.027Z,3.58
2023-03-17T04:05:09.100Z,3.64
2023-03-17T04:07:36.407Z,3.94
2023-03-17T04:10:04.966Z,3.73
2023-03-17T04:12:32.099Z,3.85
2023-03-17T04:14:59.298Z,4.14
2023-03-17T04:17:26.519Z,4.00
2023-03-17T04:19:55.259Z,3.79
2023-03-17T04:22:22.393Z,3.66
2023-03-17T04:24:49.605Z,4.05
2023-03-17T04:27:17.039Z,4.12
2023-03-17T04:29:44.503Z,4.08
2023-03-17T04:32:13.000Z,4.12
2023-03-17T04:34:40.958Z,4.46
2023-03-17T04:37:11.204Z,4.24
2023-03-17T04:39:38.619Z,4.62
2023-03-17T04:42:06.739Z,4.46
2023-03-17T04:44:34.422Z,4.15
2023-03-17T04:47:01.548Z,4.12
2023-03-17T04:49:28.701Z,3.95
2023-03-17T04:51:55.959Z,4.38
2023-03-17T04:54:24.514Z,4.25
2023-03-17T04:56:51.820Z,4.22
2023-03-17T04:59:19.479Z,4.31
2023-03-17T05:01:46.641Z,4.57
2023-03-17T05:04:25.276Z,4.37
2023-03-17T05:06:57.961Z,4.41
2023-03-17T05:09:27.160Z,4.53
2023-03-17T05:11:54.538Z,4.21
2023-03-17T05:14:21.800Z,5.05
2023-03-17T05:16:49.384Z,4.57
2023-03-17T05:19:17.744Z,4.50
2023-03-17T05:21:44.922Z,4.34
2023-03-17T05:24:12.121Z,4.18
2023-03-17T05:26:40.716Z,4.21
2023-03-17T05:29:08.427Z,4.32
2023-03-17T05:31:35.621Z,4.40
2023-03-17T05:34:02.775Z,4.38
2023-03-17T05:36:30.059Z,4.80
2023-03-17T05:38:57.183Z,4.40
2023-03-17T05:41:24.299Z,4.27
2023-03-17T05:43:52.859Z,4.42
2023-03-17T05:46:20.550Z,4.74
2023-03-17T05:48:47.917Z,4.66
2023-03-17T05:51:15.378Z,4.38
2023-03-17T05:53:42.559Z,4.47
2023-03-17T05:56:09.672Z,4.75
2023-03-17T05:58:36.905Z,4.93
2023-03-17T06:01:05.764Z,4.88
2023-03-17T06:03:32.953Z,4.88
2023-03-17T06:06:00.061Z,4.89
2023-03-17T06:08:27.282Z,5.06
2023-03-17T06:10:54.423Z,5.55
2023-03-17T06:13:21.482Z,5.84
2023-03-17T06:15:51.031Z,5.95
2023-03-17T06:18:19.717Z,5.21
2023-03-17T06:20:47.030Z,5.33
2023-03-17T06:23:14.230Z,5.91
2023-03-17T06:25:41.343Z,5.98
2023-03-17T06:28:09.004Z,5.39
2023-03-17T06:30:38.782Z,5.64
2023-03-17T06:33:07.835Z,5.34
2023-03-17T06:35:36.694Z,5.30
2023-03-17T06:38:04.121Z,5.65
2023-03-17T06:40:31.221Z,5.56
2023-03-17T06:42:58.666Z,5.84
2023-03-17T06:45:26.160Z,5.61
2023-03-17T06:47:53.302Z,5.73
2023-03-17T06:50:21.106Z,5.42
2023-03-17T06:52:49.763Z,5.09
2023-03-17T06:55:17.434Z,5.60
2023-03-17T06:57:44.647Z,5.02
2023-03-17T07:00:13.545Z,5.12
2023-03-17T07:02:40.679Z,5.32
2023-03-17T07:05:09.033Z,5.35
2023-03-17T07:07:36.240Z,5.81
2023-03-17T07:10:05.921Z,5.67
2023-03-17T07:12:34.273Z,5.64
2023-03-17T07:15:01.419Z,5.40
2023-03-17T07:17:28.540Z,5.50
2023-03-17T07:19:55.687Z,5.25
2023-03-17T07:22:23.141Z,5.80
2023-03-17T07:24:50.203Z,6.47
2023-03-17T07:27:20.817Z,5.83
2023-03-17T07:29:50.015Z,5.28
2023-03-17T07:32:17.291Z,5.04
2023-03-17T07:34:44.465Z,5.35
2023-03-17T07:37:11.826Z,5.75
2023-03-17T07:39:39.027Z,4.74
2023-03-17T07:42:06.478Z,4.62
2023-03-17T07:44:35.078Z,4.11
2023-03-17T07:47:02.278Z,4.61
2023-03-17T07:49:40.808Z,3.89
2023-03-17T07:52:09.485Z,4.04
2023-03-17T07:54:36.706Z,4.23
2023-03-17T07:57:04.302Z,4.78
2023-03-17T07:59:31.581Z,4.76
2023-03-17T08:02:00.347Z,6.24
2023-03-17T08:04:28.016Z,6.96
2023-03-17T08:06:55.176Z,6.27
2023-03-17T08:09:22.318Z,6.79
2023-03-17T08:11:49.536Z,7.20
2023-03-17T08:14:16.727Z,6.42
2023-03-17T08:16:43.968Z,6.56
2023-03-17T08:19:12.677Z,6.47
2023-03-17T08:21:39.890Z,5.79
2023-03-17T08:24:07.545Z,4.70
2023-03-17T08:26:34.740Z,5.08
2023-03-17T08:29:01.883Z,5.04
2023-03-17T08:31:29.076Z,5.34
2023-03-17T08:33:56.711Z,4.83
2023-03-17T08:36:25.620Z,4.64
2023-03-17T08:38:53.522Z,4.40
2023-03-17T08:41:23.481Z,4.43
2023-03-17T08:43:51.479Z,4.53
2023-03-17T08:46:21.266Z,4.85
2023-03-17T08:48:51.100Z,4.23
2023-03-17T08:51:24.516Z,4.50
2023-03-17T08:53:54.934Z,4.38
2023-03-17T08:56:22.963Z,4.19
2023-03-17T08:58:50.891Z,4.20
2023-03-17T09:01:18.518Z,4.21
2023-03-17T09:03:45.732Z,5.65
2023-03-17T09:06:12.981Z,4.51
2023-03-17T09:08:42.803Z,4.03
2023-03-17T09:11:14.982Z,3.78
2023-03-17T09:13:42.484Z,3.40
2023-03-17T09:16:09.993Z,3.06
2023-03-17T09:18:37.690Z,3.07
2023-03-17T09:21:05.349Z,3.06
2023-03-17T09:23:33.211Z,2.97
2023-03-17T09:26:01.271Z,4.94
2023-03-17T09:28:30.281Z,6.36
2023-03-17T09:30:59.363Z,6.76
2023-03-17T09:33:26.559Z,6.85
2023-03-17T09:35:53.884Z,7.03
2023-03-17T09:38:20.983Z,7.23
2023-03-17T09:40:53.954Z,7.26
2023-03-17T09:43:33.578Z,6.73
2023-03-17T09:46:17.072Z,7.12
2023-03-17T09:48:59.630Z,6.89
2023-03-17T09:51:30.023Z,6.76
2023-03-17T09:54:02.220Z,6.60
2023-03-17T09:56:33.499Z,5.87
2023-03-17T09:59:06.998Z,5.45
2023-03-17T10:01:34.526Z,5.47
2023-03-17T10:04:02.502Z,4.46
2023-03-17T10:06:36.940Z,4.41
2023-03-17T10:09:21.239Z,4.05
2023-03-17T10:11:51.281Z,6.13
2023-03-17T10:14:33.420Z,7.20
2023-03-17T10:17:09.564Z,7.29
2023-03-17T10:19:44.339Z,7.51
2023-03-17T10:22:19.760Z,5.44
2023-03-17T10:24:52.505Z,6.24
2023-03-17T10:27:20.113Z,6.57
2023-03-17T10:29:49.238Z,6.23
2023-03-17T10:32:16.300Z,8.29
2023-03-17T10:34:44.047Z,6.55
2023-03-17T10:37:15.401Z,6.48
2023-03-17T10:39:46.370Z,6.42
2023-03-17T10:42:22.298Z,4.28
2023-03-17T10:44:54.687Z,3.28
2023-03-17T10:47:26.226Z,2.97
2023-03-17T10:49:56.381Z,2.42
2023-03-17T10:52:27.261Z,3.29
2023-03-17T10:54:54.868Z,3.11
2023-03-17T10:57:22.386Z,3.59
2023-03-17T10:59:57.721Z,3.14
2023-03-17T11:02:28.533Z,2.43
2023-03-17T11:05:00.785Z,2.61
2023-03-17T11:07:34.481Z,2.87
2023-03-17T11:10:04.382Z,3.67
2023-03-17T11:12:39.054Z,3.49
2023-03-17T11:15:14.706Z,3.39
2023-03-17T11:17:51.925Z,3.12
2023-03-17T11:20:54.087Z,3.24
2023-03-17T11:23:44.523Z,4.51
2023-03-17T11:26:32.055Z,3.59
2023-03-17T11:29:17.771Z,3.22
2023-03-17T11:31:58.784Z,3.30
2023-03-17T11:34:40.495Z,3.34
2023-03-17T11:37:26.248Z,3.96
2023-03-17T11:40:03.439Z,3.50
2023-03-17T11:42:43.246Z,3.63
2023-03-17T11:45:22.913Z,3.54
2023-03-17T11:48:18.803Z,4.17
2023-03-17T11:50:55.809Z,3.90
2023-03-17T11:53:51.589Z,3.68
2023-03-17T11:56:21.846Z,3.33
2023-03-17T11:58:55.701Z,3.41
2023-03-17T12:01:30.141Z,4.07
2023-03-17T12:04:14.152Z,4.07
2023-03-17T12:06:49.619Z,4.18
2023-03-17T12:09:27.943Z,4.12
2023-03-17T12:11:57.187Z,4.05
2023-03-17T12:14:30.868Z,4.01
2023-03-17T12:17:07.238Z,3.79
2023-03-17T12:19:42.393Z,4.27
2023-03-17T12:22:21.423Z,3.63
2023-03-17T12:25:01.702Z,4.36
2023-03-17T12:27:33.870Z,4.60
2023-03-17T12:30:08.284Z,3.91
2023-03-17T12:32:42.040Z,3.67
2023-03-17T12:35:27.109Z,3.58
2023-03-17T12:37:56.049Z,3.53
2023-03-17T12:40:31.856Z,4.09
2023-03-17T12:43:21.269Z,3.39
2023-03-17T12:46:10.531Z,3.32
2023-03-17T12:49:01.688Z,3.67
2023-03-17T12:51:56.171Z,3.61
2023-03-17T12:54:29.648Z,2.99
2023-03-17T12:57:05.678Z,3.00
2023-03-17T12:59:33.666Z,3.21
2023-03-17T13:02:16.248Z,3.50
2023-03-17T13:04:50.958Z,2.72
2023-03-17T13:07:24.992Z,2.89
2023-03-17T13:10:19.988Z,2.80
2023-03-17T13:13:09.024Z,3.75
2023-03-17T13:15:57.389Z,3.31
2023-03-17T13:18:47.377Z,3.16
2023-03-17T13:21:17.527Z,2.83
2023-03-17T13:23:53.470Z,2.46
2023-03-17T13:26:23.008Z,2.59
2023-03-17T13:28:51.631Z,2.43
2023-03-17T13:31:37.298Z,2.65
2023-03-17T13:34:14.222Z,2.67
2023-03-17T13:36:56.213Z,2.69
2023-03-17T13:39:55.729Z,2.73
2023-03-17T13:42:42.649Z,2.28
2023-03-17T13:45:21.592Z,2.55
2023-03-17T13:47:50.594Z,2.35
2023-03-17T13:50:24.675Z,2.60
2023-03-17T13:52:57.279Z,2.99
2023-03-17T13:55:39.827Z,3.55
2023-03-17T13:58:24.977Z,2.79
2023-03-17T14:01:02.470Z,2.58
2023-03-17T14:03:39.336Z,2.43
2023-03-17T14:06:11.113Z,2.55
2023-03-17T14:08:47.199Z,2.42
2023-03-17T14:11:27.150Z,2.27
2023-03-17T14:14:29.654Z,2.27
2023-03-17T14:17:10.491Z,2.21
2023-03-17T14:19:38.272Z,2.66
2023-03-17T14:22:20.112Z,2.37
2023-03-17T14:24:52.001Z,2.42
2023-03-17T14:27:20.136Z,2.31
2023-03-17T14:29:48.765Z,2.13
2023-03-17T14:32:19.646Z,2.31
2023-03-17T14:34:49.212Z,2.25
2023-03-17T14:37:19.625Z,2.10
2023-03-17T14:39:49.525Z,2.02
2023-03-17T14:42:20.316Z,2.18
2023-03-17T14:44:48.971Z,2.04
2023-03-17T14:47:23.399Z,2.21
2023-03-17T14:49:54.028Z,2.07
2023-03-17T14:52:24.806Z,1.88
2023-03-17T14:54:54.930Z,2.21
2023-03-17T14:57:25.985Z,2.53
2023-03-17T14:59:59.761Z,2.15
2023-03-17T15:02:32.007Z,2.32
2023-03-17T15:05:03.909Z,2.35
2023-03-17T15:07:37.336Z,2.12
2023-03-17T15:10:06.884Z,2.35
2023-03-17T15:12:34.179Z,2.30
2023-03-17T15:15:08.684Z,2.11
2023-03-17T15:17:37.402Z,2.16
2023-03-17T15:20:12.917Z,2.09
2023-03-17T15:22:43.165Z,1.92
2023-03-17T15:25:26.458Z,1.92
2023-03-17T15:27:55.308Z,2.03
2023-03-17T15:30:24.769Z,1.91
2023-03-17T15:32:57.652Z,1.80
2023-03-17T15:35:25.203Z,2.12
2023-03-17T15:37:52.334Z,2.14
2023-03-17T15:40:19.919Z,1.95
2023-03-17T15:42:47.363Z,1.90
2023-03-17T15:45:16.110Z,2.32
2023-03-17T15:47:47.101Z,1.70
2023-03-17T15:50:17.529Z,1.81
2023-03-17T15:52:45.788Z,2.09
2023-03-17T15:55:21.102Z,2.09
2023-03-17T15:57:54.670Z,2.25
2023-03-17T16:00:25.311Z,2.09
2023-03-17T16:02:56.042Z,1.79
2023-03-17T16:05:26.627Z,1.90
2023-03-17T16:07:54.684Z,2.02
2023-03-17T16:10:25.556Z,1.54
2023-03-17T16:12:53.677Z,1.61
2023-03-17T16:15:23.822Z,1.76
2023-03-17T16:17:55.761Z,1.73
2023-03-17T16:20:26.016Z,1.67
2023-03-17T16:22:55.072Z,1.97
2023-03-17T16:25:25.755Z,1.95
2023-03-17T16:27:54.882Z,1.85
2023-03-17T16:30:24.250Z,1.78
2023-03-17T16:32:52.918Z,1.71
2023-03-17T16:35:24.841Z,1.98
2023-03-17T16:37:53.329Z,2.22
2023-03-17T16:40:24.008Z,2.30
2023-03-17T16:42:51.159Z,2.31
2023-03-17T16:45:25.424Z,2.00
2023-03-17T16:47:52.822Z,1.86
2023-03-17T16:50:23.884Z,1.75
2023-03-17T16:52:51.427Z,1.87
2023-03-17T16:55:20.200Z,1.65
2023-03-17T16:57:50.606Z,1.85
2023-03-17T17:00:21.805Z,2.06
2023-03-17T17:02:49.916Z,2.04
2023-03-17T17:05:20.659Z,1.77
2023-03-17T17:07:50.441Z,2.16
2023-03-17T17:10:20.321Z,2.06
2023-03-17T17:12:48.517Z,2.23
2023-03-17T17:15:18.203Z,2.46
2023-03-17T17:17:49.005Z,2.44
2023-03-17T17:20:18.585Z,2.51
2023-03-17T17:22:46.026Z,3.15
2023-03-17T17:25:15.383Z,2.98
2023-03-17T17:27:45.090Z,2.79
2023-03-17T17:30:16.774Z,2.55
2023-03-17T17:32:44.071Z,2.19
2023-03-17T17:35:12.787Z,1.90
2023-03-17T17:37:40.163Z,3.11
2023-03-17T17:40:12.096Z,3.54
2023-03-17T17:42:41.101Z,2.58
2023-03-17T17:45:10.588Z,2.49
2023-03-17T17:47:37.669Z,2.12
2023-03-17T17:50:06.419Z,2.36
2023-03-17T17:52:34.265Z,2.55
2023-03-17T17:55:01.424Z,2.79
2023-03-17T17:57:29.071Z,3.24
2023-03-17T17:59:57.803Z,3.79
2023-03-17T18:02:24.885Z,3.54
2023-03-17T18:04:52.301Z,4.83
2023-03-17T18:07:19.639Z,3.81
2023-03-17T18:09:46.776Z,4.15
2023-03-17T18:12:14.256Z,4.20
2023-03-17T18:14:41.502Z,3.48
2023-03-17T18:17:10.234Z,3.61
2023-03-17T18:19:37.444Z,4.22
2023-03-17T18:22:04.665Z,4.30
2023-03-17T18:24:31.864Z,4.75
2023-03-17T18:26:59.320Z,4.73
2023-03-17T18:29:26.461Z,5.13
2023-03-17T18:31:55.198Z,4.70
2023-03-17T18:34:29.522Z,4.47
2023-03-17T18:37:00.849Z,2.79
2023-03-17T18:39:28.499Z,3.01
2023-03-17T18:41:56.245Z,4.36
2023-03-17T18:44:23.668Z,4.67
2023-03-17T18:46:50.905Z,3.78
2023-03-17T18:49:18.120Z,3.95
2023-03-17T18:51:46.686Z,4.37
2023-03-17T18:54:13.840Z,4.62
2023-03-17T18:56:41.037Z,4.91
2023-03-17T18:59:08.454Z,4.30
2023-03-17T19:01:35.683Z,4.17
2023-03-17T19:04:03.061Z,3.48
2023-03-17T19:06:30.662Z,3.30
2023-03-17T19:08:59.558Z,4.86
2023-03-17T19:11:26.847Z,5.39
2023-03-17T19:13:54.220Z,7.63
2023-03-17T19:16:21.386Z,11.71
2023-03-17T19:18:48.702Z,9.81
2023-03-17T19:21:15.818Z,5.63
2023-03-17T19:23:42.933Z,6.28
2023-03-17T19:26:14.317Z,6.27
2023-03-17T19:28:41.857Z,6.12
2023-03-17T19:31:09.570Z,5.15
2023-03-17T19:33:37.337Z,3.48
2023-03-17T19:36:09.445Z,2.52
2023-03-17T19:38:37.238Z,3.00
2023-03-17T19:41:05.565Z,3.18
2023-03-17T19:43:40.741Z,3.50
2023-03-17T19:46:10.559Z,2.98
2023-03-17T19:48:38.267Z,2.82
2023-03-17T19:51:06.124Z,2.76
2023-03-17T19:53:33.432Z,2.95
2023-03-17T19:56:00.673Z,3.13
2023-03-17T19:58:27.968Z,2.87
2023-03-17T20:00:56.666Z,2.78
2023-03-17T20:03:26.069Z,3.25
2023-03-17T20:05:53.782Z,3.34
2023-03-17T20:08:21.581Z,3.82
2023-03-17T20:10:51.781Z,3.30
2023-03-17T20:13:18.879Z,2.87
2023-03-17T20:15:46.265Z,2.59
2023-03-17T20:18:14.962Z,3.01
2023-03-17T20:20:44.017Z,3.38
2023-03-17T20:23:11.121Z,2.72
2023-03-17T20:25:38.541Z,2.91
2023-03-17T20:28:05.822Z,2.47
2023-03-17T20:30:33.581Z,2.35
2023-03-17T20:33:00.816Z,2.84
2023-03-17T20:35:29.421Z,3.15
2023-03-17T20:37:56.581Z,2.82
2023-03-17T20:40:24.264Z,2.17
2023-03-17T20:42:51.462Z,2.33
2023-03-17T20:45:19.021Z,2.25
2023-03-17T20:47:46.543Z,2.28
2023-03-17T20:50:14.300Z,1.83
2023-03-17T20:52:43.581Z,2.14
2023-03-17T20:55:12.282Z,1.98
2023-03-17T20:57:40.030Z,2.14
2023-03-17T21:00:08.940Z,2.41
2023-03-17T21:02:36.559Z,2.34
2023-03-17T21:05:04.382Z,2.40
2023-03-17T21:07:31.680Z,2.25
2023-03-17T21:10:00.312Z,2.55
2023-03-17T21:12:27.667Z,2.17
2023-03-17T21:14:54.782Z,2.40
2023-03-17T21:17:22.643Z,2.55
2023-03-17T21:19:50.086Z,2.78
2023-03-17T21:22:17.360Z,2.99
2023-03-17T21:24:44.569Z,2.72
2023-03-17T21:27:13.180Z,2.59
2023-03-17T21:29:40.560Z,2.78
2023-03-17T21:32:07.940Z,2.67
2023-03-17T21:34:36.117Z,2.52
2023-03-17T21:37:04.297Z,2.73
2023-03-17T21:39:31.619Z,2.62
2023-03-17T21:41:58.817Z,2.64
2023-03-17T21:44:28.219Z,2.74
2023-03-17T21:46:55.397Z,2.57
2023-03-17T21:49:23.317Z,2.80
2023-03-17T21:51:51.348Z,2.60
2023-03-17T21:54:19.068Z,2.54
2023-03-17T21:56:46.275Z,2.65
2023-03-17T21:59:13.598Z,2.49
2023-03-17T22:01:43.160Z,2.41
2023-03-17T22:04:11.360Z,2.64
2023-03-17T22:06:38.584Z,3.21
2023-03-17T22:09:07.858Z,2.92
2023-03-17T22:11:35.114Z,2.89
2023-03-17T22:14:02.241Z,2.75
2023-03-17T22:16:30.611Z,2.88
2023-03-17T22:18:59.470Z,2.99
2023-03-17T22:21:26.703Z,3.37
2023-03-17T22:23:54.001Z,3.64
2023-03-17T22:26:22.285Z,3.82
2023-03-17T22:28:50.433Z,3.58
2023-03-17T22:31:20.346Z,3.13
2023-03-17T22:33:47.809Z,2.98
2023-03-17T22:36:17.421Z,2.66
2023-03-17T22:38:45.864Z,2.61
2023-03-17T22:41:16.580Z,2.26
2023-03-17T22:43:44.675Z,2.38
2023-03-17T22:46:12.126Z,2.28
2023-03-17T22:48:39.701Z,2.32
2023-03-17T22:51:09.866Z,2.37
2023-03-17T22:53:39.942Z,2.35
2023-03-17T22:56:08.621Z,2.34
2023-03-17T22:58:36.389Z,2.16
2023-03-17T23:01:04.573Z,2.30
2023-03-17T23:03:32.419Z,2.20
2023-03-17T23:06:01.944Z,2.40
2023-03-17T23:08:30.648Z,2.21
2023-03-17T23:11:01.650Z,2.30
2023-03-17T23:13:29.024Z,2.02
2023-03-17T23:15:57.124Z,2.28
2023-03-17T23:18:24.468Z,2.31
2023-03-17T23:20:52.287Z,2.05
2023-03-17T23:23:19.745Z,2.26
2023-03-17T23:25:47.006Z,2.38
2023-03-17T23:28:15.662Z,2.11
2023-03-17T23:30:43.547Z,2.14
2023-03-17T23:33:10.826Z,2.19
2023-03-17T23:35:38.163Z,2.13
2023-03-17T23:38:05.885Z,2.37
2023-03-17T23:40:33.388Z,2.12
2023-03-17T23:43:00.700Z,2.32
2023-03-17T23:45:29.279Z,1.86
2023-03-17T23:47:56.422Z,2.20
2023-03-17T23:50:24.156Z,2.20
2023-03-17T23:52:51.376Z,2.10
2023-03-17T23:55:18.685Z,2.27
2023-03-17T23:57:46.567Z,2.12
